sensor_id;sensor_type;location;lat;lon;timestamp;pressure;altitude;pressure_sealevel;temperature;humidity
37298;BME280;30517;51.932;4.278;2023-02-01T00:00:48;102061.47;;;8.61;66.85
37298;BME280;30517;51.932;4.278;2023-02-01T00:03:29;102109.50;;;8.89;67.27
37298;BME280;30517;51.932;4.278;2023-02-01T00:06:09;102073.91;;;8.67;67.41
37298;BME280;30517;51.932;4.278;2023-02-01T00:08:54;102104.13;;;8.84;66.97
37298;BME280;30517;51.932;4.278;2023-02-01T00:11:35;102085.44;;;8.72;67.17
37298;BME280;30517;51.932;4.278;2023-02-01T00:14:16;102095.81;;;8.68;67.37
37298;BME280;30517;51.932;4.278;2023-02-01T00:16:57;102126.94;;;8.85;66.65
37298;BME280;30517;51.932;4.278;2023-02-01T00:19:38;102088.75;;;8.65;66.87
37298;BME280;30517;51.932;4.278;2023-02-01T00:22:19;102078.09;;;8.60;67.08
37298;BME280;30517;51.932;4.278;2023-02-01T00:24:59;102125.09;;;8.81;66.74
37298;BME280;30517;51.932;4.278;2023-02-01T00:27:40;102119.84;;;8.81;67.61
37298;BME280;30517;51.932;4.278;2023-02-01T00:30:21;102091.44;;;8.68;66.83
37298;BME280;30517;51.932;4.278;2023-02-01T00:33:02;102125.13;;;8.83;66.90
37298;BME280;30517;51.932;4.278;2023-02-01T00:35:42;102087.81;;;8.63;67.27
37298;BME280;30517;51.932;4.278;2023-02-01T00:38:24;102098.59;;;8.74;67.36
37298;BME280;30517;51.932;4.278;2023-02-01T00:41:17;102106.72;;;8.83;66.74
37298;BME280;30517;51.932;4.278;2023-02-01T00:43:58;102096.69;;;8.68;67.26
37298;BME280;30517;51.932;4.278;2023-02-01T00:46:38;102109.19;;;8.77;67.10
37298;BME280;30517;51.932;4.278;2023-02-01T00:49:19;102088.13;;;8.75;67.08
37298;BME280;30517;51.932;4.278;2023-02-01T00:52:00;102068.47;;;8.61;67.34
37298;BME280;30517;51.932;4.278;2023-02-01T00:54:41;102073.22;;;8.76;67.27
37298;BME280;30517;51.932;4.278;2023-02-01T00:57:22;102092.53;;;8.76;67.59
37298;BME280;30517;51.932;4.278;2023-02-01T01:00:03;102073.03;;;8.68;67.12
37298;BME280;30517;51.932;4.278;2023-02-01T01:02:44;102091.66;;;8.77;66.98
37298;BME280;30517;51.932;4.278;2023-02-01T01:05:27;102094.28;;;8.76;66.70
37298;BME280;30517;51.932;4.278;2023-02-01T01:08:08;102085.44;;;8.72;67.24
37298;BME280;30517;51.932;4.278;2023-02-01T01:10:49;102080.09;;;8.71;67.21
37298;BME280;30517;51.932;4.278;2023-02-01T01:13:30;102049.03;;;8.56;66.85
37298;BME280;30517;51.932;4.278;2023-02-01T01:16:11;102086.31;;;8.74;67.58
37298;BME280;30517;51.932;4.278;2023-02-01T01:18:52;102084.50;;;8.70;67.18
37298;BME280;30517;51.932;4.278;2023-02-01T01:21:33;102085.44;;;8.72;67.35
37298;BME280;30517;51.932;4.278;2023-02-01T01:24:14;102081.94;;;8.73;66.91
37298;BME280;30517;51.932;4.278;2023-02-01T01:26:55;102081.84;;;8.70;66.74
37298;BME280;30517;51.932;4.278;2023-02-01T01:29:36;102075.50;;;8.62;66.56
37298;BME280;30517;51.932;4.278;2023-02-01T01:32:17;102062.09;;;8.53;67.24
37298;BME280;30517;51.932;4.278;2023-02-01T01:34:58;102047.88;;;8.45;66.86
37298;BME280;30517;51.932;4.278;2023-02-01T01:37:39;102075.31;;;8.54;66.81
37298;BME280;30517;51.932;4.278;2023-02-01T01:40:20;102084.22;;;8.61;67.28
37298;BME280;30517;51.932;4.278;2023-02-01T01:43:01;102097.59;;;8.69;67.37
37298;BME280;30517;51.932;4.278;2023-02-01T01:45:41;102083.22;;;8.56;67.01
37298;BME280;30517;51.932;4.278;2023-02-01T01:48:28;102060.13;;;8.44;66.57
37298;BME280;30517;51.932;4.278;2023-02-01T01:51:11;102025.50;;;8.27;66.77
37298;BME280;30517;51.932;4.278;2023-02-01T01:54:13;102084.16;;;8.58;66.60
37298;BME280;30517;51.932;4.278;2023-02-01T01:57:03;102111.53;;;8.66;66.96
37298;BME280;30517;51.932;4.278;2023-02-01T01:59:51;102070.81;;;8.50;67.54
37298;BME280;30517;51.932;4.278;2023-02-01T02:02:36;102102.78;;;8.66;67.21
37298;BME280;30517;51.932;4.278;2023-02-01T02:05:18;102083.44;;;8.63;66.91
37298;BME280;30517;51.932;4.278;2023-02-01T02:07:59;102093.13;;;8.64;67.21
37298;BME280;30517;51.932;4.278;2023-02-01T02:10:43;102071.00;;;8.58;67.23
37298;BME280;30517;51.932;4.278;2023-02-01T02:13:41;102015.06;;;8.30;67.30
37298;BME280;30517;51.932;4.278;2023-02-01T02:16:48;102072.06;;;8.64;67.20
37298;BME280;30517;51.932;4.278;2023-02-01T02:19:50;102058.94;;;8.66;67.31
37298;BME280;30517;51.932;4.278;2023-02-01T02:40:51;102038.22;;;8.44;67.33
37298;BME280;30517;51.932;4.278;2023-02-01T02:43:43;102064.91;;;8.59;67.49
37298;BME280;30517;51.932;4.278;2023-02-01T02:46:49;102033.78;;;8.41;66.72
37298;BME280;30517;51.932;4.278;2023-02-01T02:49:55;102050.59;;;8.48;67.38
37298;BME280;30517;51.932;4.278;2023-02-01T02:53:12;102060.47;;;8.56;67.57
37298;BME280;30517;51.932;4.278;2023-02-01T02:56:14;102044.38;;;8.44;67.39
37298;BME280;30517;51.932;4.278;2023-02-01T02:59:17;102059.38;;;8.48;66.81
37298;BME280;30517;51.932;4.278;2023-02-01T03:02:19;102063.97;;;8.57;67.54
37298;BME280;30517;51.932;4.278;2023-02-01T03:05:19;102045.31;;;8.46;67.28
37298;BME280;30517;51.932;4.278;2023-02-01T03:08:14;102049.94;;;8.56;66.75
37298;BME280;30517;51.932;4.278;2023-02-01T03:11:06;102075.44;;;8.59;66.92
37298;BME280;30517;51.932;4.278;2023-02-01T03:13:49;102043.78;;;8.56;66.76
37298;BME280;30517;51.932;4.278;2023-02-01T03:16:34;102011.06;;;8.45;67.10
37298;BME280;30517;51.932;4.278;2023-02-01T03:19:35;102032.97;;;8.44;66.80
37298;BME280;30517;51.932;4.278;2023-02-01T03:22:20;102019.81;;;8.44;67.34
37298;BME280;30517;51.932;4.278;2023-02-01T03:25:07;102026.22;;;8.55;67.65
37298;BME280;30517;51.932;4.278;2023-02-01T03:28:04;102006.59;;;8.40;67.54
37298;BME280;30517;51.932;4.278;2023-02-01T03:30:48;102020.03;;;8.53;67.67
37298;BME280;30517;51.932;4.278;2023-02-01T03:33:30;102014.50;;;8.42;67.32
37298;BME280;30517;51.932;4.278;2023-02-01T03:36:16;102028.84;;;8.55;67.57
37298;BME280;30517;51.932;4.278;2023-02-01T03:39:17;102034.09;;;8.53;67.15
37298;BME280;30517;51.932;4.278;2023-02-01T03:42:27;102041.16;;;8.56;67.83
37298;BME280;30517;51.932;4.278;2023-02-01T03:45:14;102013.63;;;8.41;66.83
37298;BME280;30517;51.932;4.278;2023-02-01T03:47:59;102038.44;;;8.51;67.16
37298;BME280;30517;51.932;4.278;2023-02-01T03:50:46;102032.44;;;8.57;66.97
37298;BME280;30517;51.932;4.278;2023-02-01T03:53:29;102022.59;;;8.50;67.40
37298;BME280;30517;51.932;4.278;2023-02-01T03:56:10;101988.09;;;8.37;67.06
37298;BME280;30517;51.932;4.278;2023-02-01T03:58:51;102030.69;;;8.57;67.46
37298;BME280;30517;51.932;4.278;2023-02-01T04:01:38;102015.72;;;8.55;66.89
37298;BME280;30517;51.932;4.278;2023-02-01T04:04:19;101999.75;;;8.47;66.81
37298;BME280;30517;51.932;4.278;2023-02-01T04:07:00;102015.69;;;8.53;67.60
37298;BME280;30517;51.932;4.278;2023-02-01T04:09:41;102027.13;;;8.55;67.39
37298;BME280;30517;51.932;4.278;2023-02-01T04:12:22;102009.38;;;8.47;67.30
37298;BME280;30517;51.932;4.278;2023-02-01T04:15:03;102039.44;;;8.56;67.25
37298;BME280;30517;51.932;4.278;2023-02-01T04:17:44;102027.09;;;8.54;67.49
37298;BME280;30517;51.932;4.278;2023-02-01T04:20:25;102025.16;;;8.47;66.99
37298;BME280;30517;51.932;4.278;2023-02-01T04:23:06;102006.53;;;8.39;67.23
37298;BME280;30517;51.932;4.278;2023-02-01T04:25:47;102006.63;;;8.42;67.25
37298;BME280;30517;51.932;4.278;2023-02-01T04:28:28;101985.28;;;8.31;67.01
37298;BME280;30517;51.932;4.278;2023-02-01T04:31:09;101973.06;;;8.33;66.73
37298;BME280;30517;51.932;4.278;2023-02-01T04:33:51;102040.25;;;8.54;66.70
37298;BME280;30517;51.932;4.278;2023-02-01T04:36:32;102037.63;;;8.54;66.88
37298;BME280;30517;51.932;4.278;2023-02-01T04:39:13;102035.81;;;8.53;67.29
37298;BME280;30517;51.932;4.278;2023-02-01T04:41:54;102045.44;;;8.51;66.91
37298;BME280;30517;51.932;4.278;2023-02-01T04:44:35;102029.66;;;8.52;67.00
37298;BME280;30517;51.932;4.278;2023-02-01T04:47:24;102031.41;;;8.52;66.78
37298;BME280;30517;51.932;4.278;2023-02-01T04:50:05;102036.69;;;8.52;66.75
37298;BME280;30517;51.932;4.278;2023-02-01T04:52:47;102025.28;;;8.53;66.74
37298;BME280;30517;51.932;4.278;2023-02-01T04:55:28;102029.66;;;8.52;66.85
37298;BME280;30517;51.932;4.278;2023-02-01T04:58:10;102008.50;;;8.48;66.61
37298;BME280;30517;51.932;4.278;2023-02-01T05:00:51;101963.22;;;8.25;66.70
37298;BME280;30517;51.932;4.278;2023-02-01T05:03:33;101988.66;;;8.26;66.70
37298;BME280;30517;51.932;4.278;2023-02-01T05:06:14;102006.88;;;8.53;66.80
37298;BME280;30517;51.932;4.278;2023-02-01T05:08:54;101993.59;;;8.47;67.18
37298;BME280;30517;51.932;4.278;2023-02-01T05:11:35;101994.53;;;8.49;67.53
37298;BME280;30517;51.932;4.278;2023-02-01T05:14:35;102009.50;;;8.53;67.35
37298;BME280;30517;51.932;4.278;2023-02-01T05:17:15;102013.06;;;8.53;67.39
37298;BME280;30517;51.932;4.278;2023-02-01T05:19:56;102035.81;;;8.53;67.29
37298;BME280;30517;51.932;4.278;2023-02-01T05:22:37;102034.94;;;8.52;67.52
37298;BME280;30517;51.932;4.278;2023-02-01T05:25:18;102039.34;;;8.53;66.97
37298;BME280;30517;51.932;4.278;2023-02-01T05:27:59;102039.25;;;8.50;66.82
37298;BME280;30517;51.932;4.278;2023-02-01T05:30:40;102009.13;;;8.37;66.83
37298;BME280;30517;51.932;4.278;2023-02-01T05:33:20;101985.13;;;8.24;67.38
37298;BME280;30517;51.932;4.278;2023-02-01T05:36:01;102026.97;;;8.49;66.82
37298;BME280;30517;51.932;4.278;2023-02-01T05:38:42;102031.38;;;8.50;66.62
37298;BME280;30517;51.932;4.278;2023-02-01T05:41:24;102036.69;;;8.52;67.27
37298;BME280;30517;51.932;4.278;2023-02-01T05:44:05;102035.63;;;8.45;67.21
37298;BME280;30517;51.932;4.278;2023-02-01T05:46:49;102031.19;;;8.43;66.90
37298;BME280;30517;51.932;4.278;2023-02-01T05:49:32;102027.97;;;8.54;67.36
37298;BME280;30517;51.932;4.278;2023-02-01T05:52:13;102004.91;;;8.43;67.17
37298;BME280;30517;51.932;4.278;2023-02-01T05:54:56;102015.72;;;8.55;67.02
37298;BME280;30517;51.932;4.278;2023-02-01T05:57:37;101997.91;;;8.45;67.54
37298;BME280;30517;51.932;4.278;2023-02-01T06:00:18;102018.16;;;8.47;67.13
37298;BME280;30517;51.932;4.278;2023-02-01T06:02:59;102027.97;;;8.54;67.24
37298;BME280;30517;51.932;4.278;2023-02-01T06:05:40;102007.31;;;8.36;66.93
37298;BME280;30517;51.932;4.278;2023-02-01T06:08:23;102041.94;;;8.52;66.93
37298;BME280;30517;51.932;4.278;2023-02-01T06:11:06;102045.50;;;8.54;67.38
37298;BME280;30517;51.932;4.278;2023-02-01T06:13:47;102004.66;;;8.35;66.75
37298;BME280;30517;51.932;4.278;2023-02-01T06:16:27;102048.28;;;8.60;66.37
37298;BME280;30517;51.932;4.278;2023-02-01T06:19:08;102082.47;;;8.60;66.68
37298;BME280;30517;51.932;4.278;2023-02-01T06:21:49;102052.53;;;8.55;66.76
37298;BME280;30517;51.932;4.278;2023-02-01T06:24:30;102031.34;;;8.49;66.71
37298;BME280;30517;51.932;4.278;2023-02-01T06:27:11;102028.41;;;8.38;67.13
37298;BME280;30517;51.932;4.278;2023-02-01T06:29:53;102011.66;;;8.34;67.06
37298;BME280;30517;51.932;4.278;2023-02-01T06:32:35;102045.44;;;8.52;66.99
37298;BME280;30517;51.932;4.278;2023-02-01T06:35:15;101973.34;;;8.09;67.54
37298;BME280;30517;51.932;4.278;2023-02-01T06:37:56;102037.47;;;8.49;67.30
37298;BME280;30517;51.932;4.278;2023-02-01T06:40:38;102020.53;;;8.38;66.98
37298;BME280;30517;51.932;4.278;2023-02-01T06:43:19;102009.00;;;8.34;66.89
37298;BME280;30517;51.932;4.278;2023-02-01T06:46:03;102056.56;;;8.40;67.22
37298;BME280;30517;51.932;4.278;2023-02-01T06:48:44;102018.78;;;8.38;67.07
37298;BME280;30517;51.932;4.278;2023-02-01T06:51:26;102044.44;;;8.47;67.13
37298;BME280;30517;51.932;4.278;2023-02-01T06:54:09;102043.56;;;8.47;67.45
37298;BME280;30517;51.932;4.278;2023-02-01T06:56:49;102040.94;;;8.47;67.01
37298;BME280;30517;51.932;4.278;2023-02-01T06:59:30;102028.25;;;8.32;67.35
37298;BME280;30517;51.932;4.278;2023-02-01T07:02:11;102045.25;;;8.45;66.95
37298;BME280;30517;51.932;4.278;2023-02-01T07:04:52;102039.16;;;8.46;67.04
37298;BME280;30517;51.932;4.278;2023-02-01T07:07:33;102048.75;;;8.44;67.52
37298;BME280;30517;51.932;4.278;2023-02-01T07:10:14;102037.34;;;8.43;67.22
37298;BME280;30517;51.932;4.278;2023-02-01T07:12:58;102036.47;;;8.43;67.15
37298;BME280;30517;51.932;4.278;2023-02-01T07:15:39;101991.00;;;8.15;67.48
37298;BME280;30517;51.932;4.278;2023-02-01T07:18:20;102050.44;;;8.41;67.72
37298;BME280;30517;51.932;4.278;2023-02-01T07:21:01;102058.31;;;8.41;67.54
37298;BME280;30517;51.932;4.278;2023-02-01T07:23:42;102056.56;;;8.40;67.67
37298;BME280;30517;51.932;4.278;2023-02-01T07:26:23;102066.22;;;8.41;67.37
37298;BME280;30517;51.932;4.278;2023-02-01T07:29:03;102035.66;;;8.13;66.52
37298;BME280;30517;51.932;4.278;2023-02-01T07:31:44;102048.16;;;8.22;67.26
37298;BME280;30517;51.932;4.278;2023-02-01T07:34:25;102050.84;;;8.25;66.96
37298;BME280;30517;51.932;4.278;2023-02-01T07:37:06;102057.13;;;8.30;67.12
37298;BME280;30517;51.932;4.278;2023-02-01T07:39:47;102061.50;;;8.31;67.29
37298;BME280;30517;51.932;4.278;2023-02-01T07:42:28;102070.50;;;8.06;67.32
37298;BME280;30517;51.932;4.278;2023-02-01T07:45:09;102070.66;;;8.12;67.59
37298;BME280;30517;51.932;4.278;2023-02-01T07:47:51;102079.66;;;7.89;67.48
37298;BME280;30517;51.932;4.278;2023-02-01T07:50:34;102086.41;;;8.11;67.06
37298;BME280;30517;51.932;4.278;2023-02-01T07:53:14;102086.47;;;8.14;67.25
37298;BME280;30517;51.932;4.278;2023-02-01T07:55:55;102084.72;;;8.13;67.35
37298;BME280;30517;51.932;4.278;2023-02-01T07:58:36;102081.28;;;8.17;67.68
37298;BME280;30517;51.932;4.278;2023-02-01T08:01:20;102066.31;;;8.13;67.16
37298;BME280;30517;51.932;4.278;2023-02-01T08:04:02;102095.69;;;8.31;67.68
37298;BME280;30517;51.932;4.278;2023-02-01T08:06:43;102080.53;;;8.21;67.48
37298;BME280;30517;51.932;4.278;2023-02-01T08:09:24;102102.75;;;8.32;66.98
37298;BME280;30517;51.932;4.278;2023-02-01T08:12:05;102086.63;;;8.20;67.78
37298;BME280;30517;51.932;4.278;2023-02-01T08:14:45;102096.50;;;8.29;67.35
37298;BME280;30517;51.932;4.278;2023-02-01T08:17:26;102085.09;;;8.28;67.31
37298;BME280;30517;51.932;4.278;2023-02-01T08:20:09;102091.22;;;8.27;67.26
37298;BME280;30517;51.932;4.278;2023-02-01T08:22:50;102059.38;;;8.16;67.54
37298;BME280;30517;51.932;4.278;2023-02-01T08:25:31;102083.41;;;8.30;67.73
37298;BME280;30517;51.932;4.278;2023-02-01T08:28:12;102068.44;;;8.28;67.35
37298;BME280;30517;51.932;4.278;2023-02-01T08:30:53;102065.00;;;8.30;67.15
37298;BME280;30517;51.932;4.278;2023-02-01T08:33:34;102062.16;;;8.23;67.80
37298;BME280;30517;51.932;4.278;2023-02-01T08:36:16;102086.91;;;8.29;67.87
37298;BME280;30517;51.932;4.278;2023-02-01T08:38:57;102051.53;;;8.18;67.84
37298;BME280;30517;51.932;4.278;2023-02-01T08:41:39;102051.53;;;8.18;67.46
37298;BME280;30517;51.932;4.278;2023-02-01T08:44:20;102070.25;;;8.30;67.90
37298;BME280;30517;51.932;4.278;2023-02-01T08:47:02;102046.38;;;8.21;67.20
37298;BME280;30517;51.932;4.278;2023-02-01T08:49:43;102070.34;;;8.33;67.88
37298;BME280;30517;51.932;4.278;2023-02-01T08:52:24;102080.91;;;8.35;67.98
37298;BME280;30517;51.932;4.278;2023-02-01T08:55:06;102046.47;;;8.24;67.57
37298;BME280;30517;51.932;4.278;2023-02-01T08:57:46;102058.06;;;8.32;67.41
37298;BME280;30517;51.932;4.278;2023-02-01T09:00:27;102050.94;;;8.28;67.81
37298;BME280;30517;51.932;4.278;2023-02-01T09:03:09;102044.91;;;8.32;67.70
37298;BME280;30517;51.932;4.278;2023-02-01T09:05:51;102052.88;;;8.35;68.14
37298;BME280;30517;51.932;4.278;2023-02-01T09:08:33;102038.00;;;8.36;67.75
37298;BME280;30517;51.932;4.278;2023-02-01T09:11:17;102031.84;;;8.35;67.84
37298;BME280;30517;51.932;4.278;2023-02-01T09:13:59;102027.53;;;8.37;67.19
37298;BME280;30517;51.932;4.278;2023-02-01T09:16:40;102008.78;;;8.25;67.33
37298;BME280;30517;51.932;4.278;2023-02-01T09:19:21;102031.03;;;8.38;67.18
37298;BME280;30517;51.932;4.278;2023-02-01T09:22:01;102022.13;;;8.33;67.08
37298;BME280;30517;51.932;4.278;2023-02-01T09:24:42;102046.88;;;8.39;67.25
37298;BME280;30517;51.932;4.278;2023-02-01T09:27:23;102070.53;;;8.39;67.58
37298;BME280;30517;51.932;4.278;2023-02-01T09:30:04;102041.78;;;8.46;67.10
37298;BME280;30517;51.932;4.278;2023-02-01T09:32:45;102032.91;;;8.42;67.25
37298;BME280;30517;51.932;4.278;2023-02-01T09:35:26;102034.66;;;8.41;67.78
37298;BME280;30517;51.932;4.278;2023-02-01T09:38:07;102046.03;;;8.40;67.44
37298;BME280;30517;51.932;4.278;2023-02-01T09:40:48;102070.72;;;8.46;67.13
37298;BME280;30517;51.932;4.278;2023-02-01T09:43:54;102054.75;;;8.39;67.18
37298;BME280;30517;51.932;4.278;2023-02-01T09:46:39;102099.88;;;8.55;67.60
37298;BME280;30517;51.932;4.278;2023-02-01T09:49:28;102041.44;;;8.33;67.21
37298;BME280;30517;51.932;4.278;2023-02-01T09:52:12;102069.13;;;8.52;67.61
37298;BME280;30517;51.932;4.278;2023-02-01T09:54:57;102022.09;;;8.31;66.83
37298;BME280;30517;51.932;4.278;2023-02-01T09:58:03;102051.31;;;8.42;67.84
37298;BME280;30517;51.932;4.278;2023-02-01T10:00:55;102059.25;;;8.44;66.89
37298;BME280;30517;51.932;4.278;2023-02-01T10:03:37;102064.59;;;8.47;67.07
37298;BME280;30517;51.932;4.278;2023-02-01T10:09:15;102048.66;;;8.40;67.13
37298;BME280;30517;51.932;4.278;2023-02-01T10:12:34;102062.09;;;8.53;67.06
37298;BME280;30517;51.932;4.278;2023-02-01T10:18:15;102073.56;;;8.55;67.64
37298;BME280;30517;51.932;4.278;2023-02-01T10:21:04;102069.25;;;8.57;67.33
37298;BME280;30517;51.932;4.278;2023-02-01T10:27:01;102068.31;;;8.55;67.50
37298;BME280;30517;51.932;4.278;2023-02-01T10:29:44;102058.59;;;8.52;67.60
37298;BME280;30517;51.932;4.278;2023-02-01T10:32:30;102062.38;;;8.63;67.37
37298;BME280;30517;51.932;4.278;2023-02-01T10:35:17;102057.84;;;8.58;67.23
37298;BME280;30517;51.932;4.278;2023-02-01T10:38:00;102071.94;;;8.60;67.02
37298;BME280;30517;51.932;4.278;2023-02-01T10:40:42;102067.78;;;8.68;66.99
37298;BME280;30517;51.932;4.278;2023-02-01T10:43:23;102069.53;;;8.69;66.77
37298;BME280;30517;51.932;4.278;2023-02-01T10:46:05;102072.16;;;8.69;66.97
37298;BME280;30517;51.932;4.278;2023-02-01T10:48:48;102058.19;;;8.70;67.39
37298;BME280;30517;51.932;4.278;2023-02-01T10:51:42;102053.81;;;8.71;66.99
37298;BME280;30517;51.932;4.278;2023-02-01T10:54:42;102056.38;;;8.68;67.23
37298;BME280;30517;51.932;4.278;2023-02-01T10:57:25;102014.03;;;8.58;67.54
37298;BME280;30517;51.932;4.278;2023-02-01T11:00:34;102025.47;;;8.59;66.94
37298;BME280;30517;51.932;4.278;2023-02-01T11:06:25;102045.97;;;8.72;67.59
37298;BME280;30517;51.932;4.278;2023-02-01T11:14:38;102050.38;;;8.75;67.23
37298;BME280;30517;51.932;4.278;2023-02-01T11:17:35;102064.44;;;8.75;67.43
37298;BME280;30517;51.932;4.278;2023-02-01T11:20:43;102046.88;;;8.74;67.18
37298;BME280;30517;51.932;4.278;2023-02-01T11:23:27;102005.25;;;8.58;67.17
37298;BME280;30517;51.932;4.278;2023-02-01T11:26:20;102012.31;;;8.59;67.58
37298;BME280;30517;51.932;4.278;2023-02-01T11:29:05;102031.34;;;8.49;66.96
37298;BME280;30517;51.932;4.278;2023-02-01T11:31:50;102047.59;;;8.69;66.93
37298;BME280;30517;51.932;4.278;2023-02-01T11:34:43;102042.41;;;8.70;67.87
37298;BME280;30517;51.932;4.278;2023-02-01T11:37:37;102033.56;;;8.68;67.36
37298;BME280;30517;51.932;4.278;2023-02-01T11:43:08;102033.66;;;8.71;67.29
37298;BME280;30517;51.932;4.278;2023-02-01T11:46:02;102047.03;;;8.80;67.07
37298;BME280;30517;51.932;4.278;2023-02-01T11:48:43;101960.78;;;8.32;67.29
37298;BME280;30517;51.932;4.278;2023-02-01T11:51:34;102048.00;;;8.85;67.32
37298;BME280;30517;51.932;4.278;2023-02-01T12:01:18;102030.34;;;8.80;67.05
37298;BME280;30517;51.932;4.278;2023-02-01T12:04:06;102030.66;;;8.94;67.49
37298;BME280;30517;51.932;4.278;2023-02-01T12:07:10;102012.91;;;8.83;67.22
37298;BME280;30517;51.932;4.278;2023-02-01T12:13:21;102028.97;;;8.96;67.06
37298;BME280;30517;51.932;4.278;2023-02-01T12:16:44;102040.38;;;8.96;66.87
37298;BME280;30517;51.932;4.278;2023-02-01T12:25:33;102015.03;;;9.00;67.35
37298;BME280;30517;51.932;4.278;2023-02-01T12:28:30;102017.69;;;9.01;67.42
37298;BME280;30517;51.932;4.278;2023-02-01T12:31:46;102023.88;;;9.02;67.49
37298;BME280;30517;51.932;4.278;2023-02-01T12:40:58;102004.56;;;9.03;67.24
37298;BME280;30517;51.932;4.278;2023-02-01T12:43:52;101980.41;;;8.83;67.66
37298;BME280;30517;51.932;4.278;2023-02-01T12:46:43;102013.41;;;9.05;67.10
37298;BME280;30517;51.932;4.278;2023-02-01T12:52:42;102006.34;;;9.04;67.63
37298;BME280;30517;51.932;4.278;2023-02-01T12:55:34;102009.97;;;9.09;66.84
37298;BME280;30517;51.932;4.278;2023-02-01T12:58:49;102013.47;;;9.08;67.10
37298;BME280;30517;51.932;4.278;2023-02-01T13:01:37;102018.78;;;9.11;67.03
37298;BME280;30517;51.932;4.278;2023-02-01T13:04:31;102022.28;;;9.10;66.85
37298;BME280;30517;51.932;4.278;2023-02-01T13:07:17;102039.88;;;9.13;67.45
37298;BME280;30517;51.932;4.278;2023-02-01T13:10:04;101985.78;;;8.88;66.96
37298;BME280;30517;51.932;4.278;2023-02-01T13:12:56;102024.00;;;9.09;67.26
37298;BME280;30517;51.932;4.278;2023-02-01T13:15:44;102002.81;;;9.02;66.80
37298;BME280;30517;51.932;4.278;2023-02-01T13:18:34;102010.09;;;9.15;67.01
37298;BME280;30517;51.932;4.278;2023-02-01T13:21:24;102021.56;;;9.17;66.76
37298;BME280;30517;51.932;4.278;2023-02-01T13:24:20;102017.97;;;9.14;66.85
37298;BME280;30517;51.932;4.278;2023-02-01T13:27:05;101999.50;;;9.11;67.12
37298;BME280;30517;51.932;4.278;2023-02-01T13:29:56;101997.09;;;9.21;67.50
37298;BME280;30517;51.932;4.278;2023-02-01T13:36:24;101986.31;;;9.11;67.12
37298;BME280;30517;51.932;4.278;2023-02-01T13:39:31;102030.44;;;9.21;66.55
37298;BME280;30517;51.932;4.278;2023-02-01T13:45:05;102020.84;;;9.24;66.75
37298;BME280;30517;51.932;4.278;2023-02-01T13:47:58;102006.75;;;9.22;66.37
37298;BME280;30517;51.932;4.278;2023-02-01T13:50:40;102005.88;;;9.23;66.82
37298;BME280;30517;51.932;4.278;2023-02-01T13:53:27;102001.44;;;9.19;66.39
37298;BME280;30517;51.932;4.278;2023-02-01T13:56:15;101998.75;;;9.18;66.62
37298;BME280;30517;51.932;4.278;2023-02-01T13:58:56;101999.66;;;9.18;66.63
37298;BME280;30517;51.932;4.278;2023-02-01T14:05:57;102000.78;;;9.31;66.53
37298;BME280;30517;51.932;4.278;2023-02-01T14:08:42;102016.63;;;9.33;66.66
37298;BME280;30517;51.932;4.278;2023-02-01T14:11:42;102003.47;;;9.33;66.91
37298;BME280;30517;51.932;4.278;2023-02-01T14:20:36;101973.09;;;9.07;67.00
37298;BME280;30517;51.932;4.278;2023-02-01T14:23:13;101996.28;;;9.24;67.15
37298;BME280;30517;51.932;4.278;2023-02-01T14:26:03;102001.69;;;9.31;66.63
37298;BME280;30517;51.932;4.278;2023-02-01T14:28:49;101997.16;;;9.24;66.92
37298;BME280;30517;51.932;4.278;2023-02-01T14:31:35;102007.00;;;9.33;66.65
37298;BME280;30517;51.932;4.278;2023-02-01T14:34:48;102004.31;;;9.31;67.08
37298;BME280;30517;51.932;4.278;2023-02-01T14:37:34;101988.44;;;9.27;66.85
37298;BME280;30517;51.932;4.278;2023-02-01T14:40:20;102012.22;;;9.31;66.96
37298;BME280;30517;51.932;4.278;2023-02-01T14:43:04;102016.69;;;9.36;66.80
37298;BME280;30517;51.932;4.278;2023-02-01T14:45:48;101996.34;;;9.28;66.56
37298;BME280;30517;51.932;4.278;2023-02-01T14:51:15;102000.63;;;9.23;67.18
37298;BME280;30517;51.932;4.278;2023-02-01T14:53:57;102014.06;;;9.36;66.55
37298;BME280;30517;51.932;4.278;2023-02-01T14:56:38;102001.69;;;9.31;67.13
37298;BME280;30517;51.932;4.278;2023-02-01T14:59:21;102005.13;;;9.27;67.08
37298;BME280;30517;51.932;4.278;2023-02-01T15:02:21;102028.19;;;9.39;66.84
37298;BME280;30517;51.932;4.278;2023-02-01T15:05:26;101993.69;;;9.27;66.54
37298;BME280;30517;51.932;4.278;2023-02-01T15:08:31;102034.19;;;9.32;67.29
37298;BME280;30517;51.932;4.278;2023-02-01T15:11:15;102022.91;;;9.39;66.74
37298;BME280;30517;51.932;4.278;2023-02-01T15:13:56;102015.72;;;9.30;67.01
37298;BME280;30517;51.932;4.278;2023-02-01T15:16:42;102016.75;;;9.39;66.99
37298;BME280;30517;51.932;4.278;2023-02-01T15:19:25;102023.94;;;9.46;67.06
37298;BME280;30517;51.932;4.278;2023-02-01T15:22:18;102026.53;;;9.44;67.02
37298;BME280;30517;51.932;4.278;2023-02-01T15:24:59;102030.16;;;9.48;67.13
37298;BME280;30517;51.932;4.278;2023-02-01T15:27:43;102023.97;;;9.47;67.10
37298;BME280;30517;51.932;4.278;2023-02-01T15:30:29;102016.03;;;9.46;67.30
37298;BME280;30517;51.932;4.278;2023-02-01T15:33:16;102015.97;;;9.43;67.28
37298;BME280;30517;51.932;4.278;2023-02-01T15:36:16;102028.34;;;9.45;67.33
37298;BME280;30517;51.932;4.278;2023-02-01T15:42:01;102007.75;;;9.27;67.97
37298;BME280;30517;51.932;4.278;2023-02-01T15:44:49;102016.59;;;9.31;67.56
37298;BME280;30517;51.932;4.278;2023-02-01T15:47:31;102000.59;;;9.22;67.09
37298;BME280;30517;51.932;4.278;2023-02-01T15:50:15;102035.44;;;9.49;67.23
37298;BME280;30517;51.932;4.278;2023-02-01T15:52:56;102032.06;;;9.57;66.99
37298;BME280;30517;51.932;4.278;2023-02-01T15:55:39;102015.84;;;9.37;66.62
37298;BME280;30517;51.932;4.278;2023-02-01T15:58:23;102047.00;;;9.58;67.04
37298;BME280;30517;51.932;4.278;2023-02-01T16:01:05;102036.13;;;9.41;67.22
37298;BME280;30517;51.932;4.278;2023-02-01T16:03:47;102028.09;;;9.35;67.58